No data was retrieved for https://query.yahooapis.com/v1/public/yql?q=select+%2A+from+weather.forecast+where+woeid%3D973505&format=xml&u=c


Lesvos Island / Mitilini / Pligoni / SV8DTD



warning for Thunderstorms more information blitzortung!


warning for Rain more information rain snow radar


Visit our other weather sites:

Template documentation
and downloads

And another site



Rain From: 16-10-2021 01:00 Until: 17:00 warning for: Rain Level: Orange info button
english:
BE PREPARED to protect yourself and your property. Some flooding of properties and transport networks are possible. Disruption to power, communications and water supplies are possible. Some evacuations may be required. Dangerous driving conditions due to reduced visibility and aquaplaning

Ελληνικά:
ΠΡΟΕΤΟΙΜΑΣΤΕΙΤΕ να προστατεύσετε τον εαυτό σας και την περιουσία σας. Ενδέχεται να υπάρξουν κάποιες πλημμύρες σε ακίνητα και δίκτυα μεταφορών. Ενδέχεται διακοπή στην παροχή ρεύματος και νερού καθώς και διακοπή στις επικοινωνίες. Μπορεί να χρειαστεί εκκένωση κάποιων περιοχών. Επικίνδυνες συνθήκες οδήγησης λόγω περιορισμένης ορατότητας και ολισθηρότητας του οδικού δικτύου. 

Thunderstorms From: 16-10-2021 01:00 Until: 17:00 warning for: Thunderstorms Level: Orange info button
english:
BE PREPARED for severe thunderstorms causing significant impact and protect yourself from lightning. Damage to property and trees may occur. Flash flooding, wind gusts and hail are possible. Transport and outdoor activities disruption can be expected.

Ελληνικά:
ΠΡΟΕΤΟΙΜΑΣΤΕΙΤΕ για ισχυρές καταιγίδες που έχουν σημαντικές επιπτώσεις και προστατεύστε τον εαυτό σας από τους κεραυνούς. Είναι δυνατό να προκληθούν ζημιές σε περιουσίες και δέντρα από τις πλημμύρες, τις ριπές του ανέμου και το χαλάζι. Αναμένονται προβλήματα στις υπαίθριες δραστηριότητες και τις μεταφορές. 

Nearby METAR Reports

   
EHVK - Volkel Rnlafb, Netherlands
Distance from station: SW 18 km
Updated: Sat-Oct-2021 10:55
Overcast  
Overcast  
   Wind: varies 3.7 km/h
Wind: varies 3.7 km/h
Temperature: 8°C
Dew Point: 7°C
Humidity: 93%
Barometer: 1022 hPa
Clouds: Overcast
Visibility: More than 10 km
Cloud details: Overcast 4800 ft
EHVK 160755Z AUTO VRB02KT 9999 OVC048 08/07 Q1022 BLU
EDLV - Niederrhein, Germany
Distance from station: SE 25 km
Updated: Sat-Oct-2021 10:50
Overcast  
Overcast  
   Wind: varies 3.7 km/h
Wind: varies 3.7 km/h
Temperature: 6°C
Dew Point: 6°C
Humidity: 100%
Barometer: 1022 hPa
Clouds: Overcast
Visibility: More than 10 km
Cloud details: Overcast 4800 ft
EDLV 160750Z VRB02KT 9999 OVC048 06/06 Q1022
EHDL - Deelen Rnlafb, Netherlands
Distance from station: N 35 km
Updated: Sat-Oct-2021 10:55
Overcast  
Overcast  
   Wind: SE 5.6 km/h
Wind: SE 5.6 km/h
Temperature: 8°C
Wind Chill: 7°C
Dew Point: 7°C
Humidity: 93%
Barometer: 1022 hPa
Clouds: Overcast
Visibility: More than 10 km
Cloud details: Overcast 4700 ft
EHDL 160755Z AUTO 14003KT 9999 OVC047 08/07 Q1022 BLU
EHEH - Eindhoven Rnlafb, Netherlands
Distance from station: SW 48 km
Updated: Sat-Oct-2021 10:55
Overcast  
Overcast  
   Wind: SSE 5.6 km/h
Wind: SSE 5.6 km/h
Temperature: 7°C
Wind Chill: 6°C
Dew Point: 6°C
Humidity: 93%
Barometer: 1023 hPa
Clouds: Overcast
Visibility: More than 10 km
Cloud details: Overcast 4600 ft
EHEH 160755Z AUTO 15003KT 130V290 9999 OVC046 07/06 Q1023 BLU BECMG 21004KT
EHGR - Gilze-Rijen Rnla, Netherlands
Distance from station: WSW 70 km
Updated: Sat-Oct-2021 10:55
Overcast  
Overcast  
   Wind: varies 3.7 km/h
Wind: varies 3.7 km/h
Temperature: 9°C
Dew Point: 6°C
Humidity: 82%
Barometer: 1022 hPa
Clouds: Overcast
Visibility: More than 10 km
Cloud details: Overcast 4900 ft
EHGR 160755Z AUTO VRB02KT 9999 OVC049 09/06 Q1022 BLU
EBBL - Kleine-Brogel(Ba, Belgium
Distance from station: SSW 71 km
Updated: Sat-Oct-2021 10:55
Clear  
Clear  
   Wind: varies 1.9 km/h
Wind: varies 1.9 km/h
Temperature: 7°C
Dew Point: 6°C
Humidity: 93%
Barometer: 1022 hPa
Clouds: Clear
Visibility: More than 10 km
Cloud details: Clear
EBBL 160755Z AUTO VRB01KT 9999 NCD 07/06 Q1022 BLU

Script developed by  Saratoga-weather.org Adapted for the template by  Weerstation Leuven

You find our weather info also at:

European Weather Network

Citizen Weather Observer Program (CWOP)

Equipment we use:

Weather-station
Davis VP2

Weather-program
Meteohub

Davis VP2

Meteohub